Time;durP1;ratioP1;P1;durP2;ratioP2;P2;SDS_P1;SDS_P2;PMS_P1;PMS_P2;Temp;Humidity;BMP_temperature;BMP_pressure;BME280_temperature;BME280_humidity;BME280_pressure;Samples;Min_cycle;Max_cycle;Signal;HPM_P1;HPM_P2
2022/01/08 00:00:16;;;;;;;9.83;5.40;;;2.00;99.90;;;;;;5095085;28;20040;-85
2022/01/08 00:02:43;;;;;;;10.77;5.47;;;2.00;99.90;;;;;;5079035;28;20042;-85
2022/01/08 00:05:10;;;;;;;10.60;5.63;;;2.00;99.90;;;;;;5097268;28;20096;-86
2022/01/08 00:07:36;;;;;;;9.37;4.77;;;2.10;99.90;;;;;;5098006;28;20070;-86
2022/01/08 00:10:03;;;;;;;8.73;5.30;;;2.10;99.90;;;;;;5075008;28;20040;-86
2022/01/08 00:12:28;;;;;;;9.60;6.27;;;2.10;99.90;;;;;;5096120;28;20073;-86
2022/01/08 00:14:54;;;;;;;11.83;5.40;;;2.10;99.90;;;;;;5071587;28;20044;-86
2022/01/08 00:17:22;;;;;;;6.90;5.20;;;2.10;99.90;;;;;;5077668;28;20071;-86
2022/01/08 00:19:52;;;;;;;10.27;5.17;;;2.20;99.90;;;;;;5079600;28;20039;-86
2022/01/08 00:22:18;;;;;;;12.67;5.43;;;2.00;99.90;;;;;;5093724;28;20670;-85
2022/01/08 00:24:44;;;;;;;10.40;5.70;;;2.00;99.90;;;;;;5075053;28;20053;-85
2022/01/08 00:27:09;;;;;;;9.63;5.60;;;2.00;99.90;;;;;;5055796;28;20052;-85
2022/01/08 00:29:35;;;;;;;10.60;6.10;;;2.00;99.90;;;;;;5079345;28;20040;-87
2022/01/08 00:32:01;;;;;;;9.07;5.53;;;2.00;99.90;;;;;;5094161;28;20155;-86
2022/01/08 00:34:27;;;;;;;12.50;6.63;;;2.00;99.90;;;;;;5079055;28;20047;-86
2022/01/08 00:36:52;;;;;;;9.30;5.93;;;1.90;99.90;;;;;;5066104;27;20059;-86
2022/01/08 00:39:18;;;;;;;7.27;5.67;;;1.90;99.90;;;;;;5062288;27;20887;-88
2022/01/08 00:41:44;;;;;;;7.80;5.37;;;1.90;99.90;;;;;;5083404;27;20042;-87
2022/01/08 00:44:10;;;;;;;11.13;5.90;;;1.90;99.90;;;;;;5117602;27;20040;-87
2022/01/08 00:46:35;;;;;;;10.43;5.87;;;1.90;99.90;;;;;;5084056;27;20043;-86
2022/01/08 00:49:03;;;;;;;8.77;5.97;;;2.00;99.90;;;;;;5079958;27;20027;-85
2022/01/08 00:51:28;;;;;;;9.40;5.43;;;1.90;99.90;;;;;;5113903;27;20081;-85
2022/01/08 00:53:54;;;;;;;13.40;5.90;;;2.00;99.90;;;;;;5100744;27;20510;-85
2022/01/08 00:56:20;;;;;;;10.93;5.93;;;2.00;99.90;;;;;;5111794;27;20044;-85
2022/01/08 00:58:46;;;;;;;9.90;5.43;;;2.00;99.90;;;;;;5080548;27;20036;-85
2022/01/08 01:01:12;;;;;;;11.63;5.93;;;2.00;99.90;;;;;;5082956;27;20108;-85
2022/01/08 01:03:37;;;;;;;7.53;4.90;;;2.00;99.90;;;;;;5091995;27;20073;-85
2022/01/08 01:06:06;;;;;;;10.47;5.00;;;2.00;99.90;;;;;;5100551;27;20041;-86
2022/01/08 01:08:32;;;;;;;8.50;4.73;;;2.00;99.90;;;;;;5098381;27;20100;-86
2022/01/08 01:10:58;;;;;;;7.43;4.57;;;2.00;99.90;;;;;;5064801;27;20047;-85
2022/01/08 01:13:24;;;;;;;7.67;4.93;;;1.90;99.90;;;;;;5084068;27;20089;-85
2022/01/08 01:15:50;;;;;;;10.37;4.63;;;1.90;99.90;;;;;;5068147;27;20047;-84
2022/01/08 01:18:16;;;;;;;13.33;5.27;;;1.90;99.90;;;;;;5097101;27;20023;-85
2022/01/08 01:20:42;;;;;;;8.67;5.40;;;1.90;99.90;;;;;;5116166;27;20112;-86
2022/01/08 01:23:15;;;;;;;9.03;4.90;;;1.80;99.90;;;;;;5115677;27;20695;-85
2022/01/08 01:25:50;;;;;;;9.20;4.87;;;1.90;99.90;;;;;;5128307;27;20042;-87
2022/01/08 01:28:34;;;;;;;10.80;4.97;;;1.80;99.90;;;;;;5112389;27;20039;-87
2022/01/08 01:47:11;;;;;;;9.57;6.40;;;1.90;99.90;;;;;;5124044;27;20410;-84
2022/01/08 01:49:40;;;;;;;11.27;6.13;;;1.90;99.90;;;;;;5081683;27;20043;-85
2022/01/08 01:52:08;;;;;;;11.13;7.17;;;1.90;99.90;;;;;;5092362;27;20116;-87
2022/01/08 01:54:35;;;;;;;12.07;7.20;;;1.90;99.90;;;;;;5093448;27;20127;-85
2022/01/08 01:57:02;;;;;;;12.33;6.90;;;1.90;99.90;;;;;;5102231;27;20039;-85
2022/01/08 01:59:29;;;;;;;11.20;6.83;;;1.90;99.90;;;;;;5081316;27;20053;-85
2022/01/08 02:01:57;;;;;;;18.27;7.70;;;1.90;99.90;;;;;;5112989;27;20039;-86
2022/01/08 02:04:24;;;;;;;12.83;7.93;;;1.90;99.90;;;;;;5097250;27;20517;-86
2022/01/08 02:06:49;;;;;;;13.70;7.70;;;1.90;99.90;;;;;;5079509;27;20066;-87
2022/01/08 02:09:15;;;;;;;12.90;8.67;;;1.90;99.90;;;;;;5079330;27;20080;-85
2022/01/08 02:12:02;;;;;;;16.40;8.30;;;1.90;99.90;;;;;;5106545;27;20062;-86
2022/01/08 02:14:32;;;;;;;13.60;8.60;;;1.90;99.90;;;;;;5089202;27;20599;-85
2022/01/08 02:16:58;;;;;;;16.67;8.87;;;1.90;99.90;;;;;;5124274;27;20130;-85
2022/01/08 02:19:25;;;;;;;18.53;9.43;;;1.90;99.90;;;;;;5099072;27;20543;-85
2022/01/08 02:21:56;;;;;;;18.67;9.37;;;1.90;99.90;;;;;;5079692;27;20071;-85
2022/01/08 02:24:23;;;;;;;14.88;9.13;;;2.00;99.90;;;;;;5097447;27;20033;-84
2022/01/08 02:26:49;;;;;;;16.60;9.00;;;2.00;99.90;;;;;;5099002;27;20058;-87
2022/01/08 02:29:19;;;;;;;17.33;9.83;;;2.00;99.90;;;;;;5092652;27;20070;-85
2022/01/08 02:31:56;;;;;;;15.13;9.23;;;2.00;99.90;;;;;;5095415;27;20039;-86
2022/01/08 02:34:23;;;;;;;16.57;9.50;;;1.90;99.90;;;;;;5112789;27;20046;-87
2022/01/08 02:36:49;;;;;;;16.77;10.13;;;1.90;99.90;;;;;;5078268;28;20601;-86
2022/01/08 02:39:15;;;;;;;14.10;8.80;;;1.90;99.90;;;;;;5093554;28;20347;-86
2022/01/08 02:41:40;;;;;;;13.27;8.83;;;1.90;99.90;;;;;;5081590;28;20027;-86
2022/01/08 02:44:07;;;;;;;13.17;8.97;;;1.90;99.90;;;;;;5063115;28;20054;-85
2022/01/08 02:46:33;;;;;;;17.27;9.13;;;1.90;99.90;;;;;;5094738;28;20468;-85
2022/01/08 02:48:59;;;;;;;17.80;9.50;;;1.90;99.90;;;;;;5099083;28;20031;-86
2022/01/08 02:51:25;;;;;;;17.33;9.73;;;1.80;99.90;;;;;;5098380;28;20050;-86
2022/01/08 02:53:51;;;;;;;20.70;9.77;;;1.80;99.90;;;;;;5097678;27;20051;-85
2022/01/08 02:56:17;;;;;;;14.73;9.30;;;1.80;99.90;;;;;;5096106;27;20043;-86
2022/01/08 02:58:43;;;;;;;15.30;9.47;;;1.80;99.90;;;;;;5118144;27;20071;-86
2022/01/08 03:01:09;;;;;;;16.00;9.40;;;1.70;99.90;;;;;;5085966;27;20059;-87
2022/01/08 03:03:34;;;;;;;15.37;9.70;;;1.70;99.90;;;;;;5100868;27;20050;-86
2022/01/08 03:06:00;;;;;;;16.30;9.03;;;1.70;99.90;;;;;;5091106;27;20051;-86
2022/01/08 03:08:26;;;;;;;15.67;8.60;;;1.70;99.90;;;;;;5100881;27;20118;-86
2022/01/08 03:10:53;;;;;;;16.67;10.40;;;1.70;99.90;;;;;;5103274;27;20035;-86
2022/01/08 03:13:19;;;;;;;16.67;9.23;;;1.70;99.90;;;;;;5096977;27;20039;-87
2022/01/08 03:15:45;;;;;;;13.57;8.80;;;1.60;99.90;;;;;;5119545;27;20035;-86
2022/01/08 03:18:11;;;;;;;14.03;9.73;;;1.50;99.90;;;;;;5084347;27;20111;-88
2022/01/08 03:20:45;;;;;;;15.80;9.20;;;1.60;99.90;;;;;;5065516;27;20046;-87
2022/01/08 03:23:15;;;;;;;19.43;9.30;;;1.60;99.90;;;;;;5117223;27;20141;-87
2022/01/08 03:25:41;;;;;;;16.33;9.20;;;1.60;99.90;;;;;;5100787;27;20051;-86
2022/01/08 03:28:07;;;;;;;16.93;8.60;;;1.50;99.90;;;;;;5084172;27;20035;-86
2022/01/08 03:30:34;;;;;;;17.03;8.80;;;1.50;99.90;;;;;;5078644;27;20054;-87
2022/01/08 03:33:00;;;;;;;20.30;9.37;;;1.50;99.90;;;;;;5082897;27;20519;-86
2022/01/08 03:35:26;;;;;;;19.27;10.50;;;1.40;99.90;;;;;;5085330;27;20952;-85
2022/01/08 03:37:52;;;;;;;14.73;9.00;;;1.40;99.90;;;;;;5081946;27;20737;-86
2022/01/08 03:40:18;;;;;;;16.30;9.20;;;1.40;99.90;;;;;;5100307;27;20035;-86
2022/01/08 03:42:44;;;;;;;13.47;9.10;;;1.40;99.90;;;;;;5119035;27;20051;-85
2022/01/08 03:45:10;;;;;;;14.07;8.97;;;1.40;99.90;;;;;;5084525;27;20089;-85
2022/01/08 03:50:15;;;;;;;17.40;9.53;;;1.40;99.90;;;;;;5087379;27;20100;-85
2022/01/08 03:52:40;;;;;;;12.73;8.43;;;1.30;99.90;;;;;;5101812;27;20077;-86
2022/01/08 03:55:07;;;;;;;15.03;9.20;;;1.30;99.90;;;;;;5092950;27;20293;-86
2022/01/08 03:57:33;;;;;;;12.77;8.37;;;1.30;99.90;;;;;;5094983;27;20035;-87
2022/01/08 03:59:59;;;;;;;14.40;9.00;;;1.40;99.90;;;;;;5097979;27;20281;-84
2022/01/08 04:02:25;;;;;;;13.90;7.67;;;1.30;99.90;;;;;;5084755;27;20103;-85
2022/01/08 04:04:51;;;;;;;16.47;8.33;;;1.30;99.90;;;;;;5092517;27;20157;-86
2022/01/08 04:07:16;;;;;;;12.87;8.53;;;1.30;99.90;;;;;;5077888;27;20863;-86
2022/01/08 04:09:44;;;;;;;13.17;7.50;;;1.30;99.90;;;;;;5082173;27;20044;-87
2022/01/08 04:12:15;;;;;;;13.30;7.43;;;1.30;99.90;;;;;;5071258;27;20078;-84
2022/01/08 04:15:01;;;;;;;12.20;7.00;;;1.30;99.90;;;;;;5081952;27;20057;-86
2022/01/08 04:17:27;;;;;;;11.93;6.93;;;1.40;99.90;;;;;;5088845;27;20073;-87
2022/01/08 04:19:52;;;;;;;13.47;7.10;;;1.40;99.90;;;;;;5101389;27;20296;-88
2022/01/08 04:22:18;;;;;;;14.07;6.80;;;1.40;99.90;;;;;;5083492;27;20517;-86
2022/01/08 04:24:44;;;;;;;10.70;6.93;;;1.40;99.90;;;;;;5083262;27;20054;-86
2022/01/08 04:27:10;;;;;;;14.17;6.50;;;1.30;99.90;;;;;;5064340;27;20036;-85
2022/01/08 04:29:36;;;;;;;10.47;6.27;;;1.40;99.90;;;;;;5082840;27;20043;-86
2022/01/08 04:32:02;;;;;;;14.97;7.17;;;1.30;99.90;;;;;;5083546;27;20126;-87
2022/01/08 04:34:27;;;;;;;10.10;6.17;;;1.30;99.90;;;;;;5084263;27;20039;-87
2022/01/08 04:36:53;;;;;;;15.23;6.97;;;1.40;99.90;;;;;;5083775;27;20043;-86
2022/01/08 04:39:19;;;;;;;10.33;5.80;;;1.40;99.90;;;;;;5081259;27;20073;-87
2022/01/08 04:41:45;;;;;;;9.93;6.00;;;1.40;99.90;;;;;;5083115;27;20050;-87
2022/01/08 04:44:11;;;;;;;11.50;6.20;;;1.40;99.90;;;;;;5096684;27;20039;-88
2022/01/08 04:46:38;;;;;;;13.30;5.97;;;1.30;99.90;;;;;;5094856;27;20306;-87
2022/01/08 04:49:05;;;;;;;13.40;5.87;;;1.40;99.90;;;;;;5083619;27;20054;-87
2022/01/08 04:51:31;;;;;;;9.93;4.87;;;1.40;99.90;;;;;;5101177;27;20318;-86
2022/01/08 04:53:57;;;;;;;12.47;5.60;;;1.40;99.90;;;;;;5085141;27;20069;-86
2022/01/08 04:56:22;;;;;;;9.90;5.73;;;1.40;99.90;;;;;;5081293;27;20073;-87
2022/01/08 04:58:48;;;;;;;10.03;5.73;;;1.30;99.90;;;;;;5063710;27;20431;-87
2022/01/08 05:01:16;;;;;;;13.93;5.50;;;1.30;99.90;;;;;;5083204;27;20616;-86
2022/01/08 05:03:42;;;;;;;11.70;5.90;;;1.40;99.90;;;;;;5099559;27;20041;-87
2022/01/08 05:06:08;;;;;;;12.13;5.80;;;1.30;99.90;;;;;;5100099;27;20367;-87
2022/01/08 05:08:33;;;;;;;12.63;5.73;;;1.40;99.90;;;;;;5066871;27;20114;-86
2022/01/08 05:11:00;;;;;;;13.10;5.80;;;1.40;99.90;;;;;;5094603;27;20043;-87
2022/01/08 05:13:26;;;;;;;15.47;6.37;;;1.40;99.90;;;;;;5100705;27;20134;-87
2022/01/08 05:15:51;;;;;;;12.73;7.23;;;1.30;99.90;;;;;;5083349;27;20050;-87
2022/01/08 05:18:17;;;;;;;13.33;7.10;;;1.30;99.90;;;;;;5066446;27;20799;-87
2022/01/08 05:20:52;;;;;;;14.67;7.37;;;1.40;99.90;;;;;;5066368;27;20073;-86
2022/01/08 05:23:17;;;;;;;13.53;8.30;;;1.40;99.90;;;;;;5101405;27;20049;-86
2022/01/08 05:25:43;;;;;;;12.97;7.23;;;1.30;99.90;;;;;;5080415;27;20039;-87
2022/01/08 05:28:09;;;;;;;16.57;8.03;;;1.30;99.90;;;;;;5062740;27;20039;-87
2022/01/08 05:30:34;;;;;;;18.93;8.67;;;1.30;99.90;;;;;;5083914;27;20103;-86
2022/01/08 05:33:00;;;;;;;16.40;8.33;;;1.40;99.90;;;;;;5096044;27;20532;-88
2022/01/08 05:35:27;;;;;;;13.93;8.73;;;1.30;99.90;;;;;;5066415;27;20087;-87
2022/01/08 05:37:54;;;;;;;21.00;8.63;;;1.40;99.90;;;;;;5098175;27;20047;-88
2022/01/08 05:40:20;;;;;;;17.53;8.37;;;1.40;99.90;;;;;;5111529;27;20289;-87
2022/01/08 05:42:46;;;;;;;11.77;8.13;;;1.30;99.90;;;;;;5081996;27;20318;-87
2022/01/08 05:45:12;;;;;;;17.77;8.73;;;1.40;99.90;;;;;;5100756;27;20289;-89
2022/01/08 05:47:38;;;;;;;17.17;8.93;;;1.40;99.90;;;;;;5086500;27;20065;-87
2022/01/08 05:50:06;;;;;;;17.43;9.10;;;1.40;99.90;;;;;;5114847;27;20039;-87
2022/01/08 05:52:32;;;;;;;15.83;8.63;;;1.40;99.90;;;;;;5079160;27;20134;-84
2022/01/08 05:54:58;;;;;;;14.13;8.43;;;1.30;99.90;;;;;;5072358;27;20612;-87
2022/01/08 05:57:24;;;;;;;17.17;8.90;;;1.30;99.90;;;;;;5092129;27;20070;-87
2022/01/08 05:59:49;;;;;;;15.50;8.17;;;1.30;99.90;;;;;;5116438;27;20047;-87
2022/01/08 06:02:15;;;;;;;15.00;8.10;;;1.20;99.90;;;;;;5079695;27;20047;-86
2022/01/08 06:04:41;;;;;;;14.70;8.00;;;1.20;99.90;;;;;;5082099;27;20082;-87
2022/01/08 06:07:07;;;;;;;16.00;8.70;;;1.20;99.90;;;;;;5093328;27;20103;-86
2022/01/08 06:09:33;;;;;;;14.80;7.80;;;1.20;99.90;;;;;;5091890;27;20463;-85
2022/01/08 06:11:58;;;;;;;12.03;7.80;;;1.20;99.90;;;;;;5077716;27;20039;-87
2022/01/08 06:14:24;;;;;;;14.90;7.80;;;1.20;99.90;;;;;;5078709;27;20073;-86
2022/01/08 06:16:50;;;;;;;15.40;8.27;;;1.20;99.90;;;;;;5094662;27;20039;-88
2022/01/08 06:19:16;;;;;;;12.77;7.73;;;1.20;99.90;;;;;;5098988;27;20410;-87
2022/01/08 06:21:42;;;;;;;17.17;7.43;;;1.20;99.90;;;;;;5093482;27;20043;-87
2022/01/08 06:24:09;;;;;;;14.10;7.57;;;1.20;99.90;;;;;;5096376;27;20053;-88
2022/01/08 06:26:35;;;;;;;13.87;7.10;;;1.20;99.90;;;;;;5084708;27;20068;-88
2022/01/08 06:29:01;;;;;;;16.83;7.40;;;1.20;99.90;;;;;;5113945;28;20288;-87
2022/01/08 06:31:27;;;;;;;14.63;7.60;;;1.20;99.90;;;;;;5076039;27;20036;-87
2022/01/08 06:33:53;;;;;;;14.40;7.40;;;1.20;99.90;;;;;;5078216;28;20299;-86
2022/01/08 06:36:19;;;;;;;16.90;7.13;;;1.20;99.90;;;;;;5065277;28;20304;-86
2022/01/08 06:38:46;;;;;;;16.53;7.53;;;1.20;99.90;;;;;;5095838;28;20039;-87
2022/01/08 06:41:12;;;;;;;18.47;7.47;;;1.20;99.90;;;;;;5095915;28;20047;-87
2022/01/08 06:43:39;;;;;;;14.93;7.43;;;1.20;99.90;;;;;;5079044;28;20046;-88
2022/01/08 06:46:04;;;;;;;14.30;7.00;;;1.20;99.90;;;;;;5093030;28;20043;-84
2022/01/08 06:48:30;;;;;;;13.93;6.97;;;1.10;99.90;;;;;;5081082;28;20316;-84
2022/01/08 06:50:56;;;;;;;17.63;7.43;;;1.20;99.90;;;;;;5096340;28;20035;-85
2022/01/08 06:53:22;;;;;;;15.10;6.87;;;1.20;99.90;;;;;;5060751;28;20161;-84
2022/01/08 06:55:48;;;;;;;16.10;7.40;;;1.10;99.90;;;;;;5078595;28;20615;-84
2022/01/08 06:58:14;;;;;;;17.87;7.43;;;1.10;99.90;;;;;;5097963;28;20047;-85
2022/01/08 07:00:40;;;;;;;13.33;6.87;;;1.10;99.90;;;;;;5080855;28;20041;-84
2022/01/08 07:03:09;;;;;;;14.90;6.80;;;1.10;99.90;;;;;;5080924;28;20325;-84
2022/01/08 07:05:36;;;;;;;13.50;7.07;;;1.10;99.90;;;;;;5092706;28;20293;-85
2022/01/08 07:08:02;;;;;;;12.47;7.30;;;1.10;99.90;;;;;;5073540;28;20062;-81
2022/01/08 07:10:28;;;;;;;13.57;6.20;;;1.10;99.90;;;;;;5073815;28;20302;-82
2022/01/08 07:12:54;;;;;;;15.30;7.00;;;1.10;99.90;;;;;;5078587;28;20312;-83
2022/01/08 07:15:20;;;;;;;11.93;6.30;;;1.00;99.90;;;;;;5081237;28;20039;-83
2022/01/08 07:17:46;;;;;;;13.50;6.60;;;1.00;99.90;;;;;;5091485;28;20518;-82
2022/01/08 07:20:12;;;;;;;15.50;6.80;;;1.00;99.90;;;;;;5096766;28;20039;-82
2022/01/08 07:22:38;;;;;;;16.27;6.97;;;1.00;99.90;;;;;;5082070;28;20292;-83
2022/01/08 07:25:04;;;;;;;14.03;6.30;;;1.00;99.90;;;;;;5077841;28;20832;-83
2022/01/08 07:27:32;;;;;;;17.93;7.07;;;1.00;99.90;;;;;;5078734;28;20082;-89
2022/01/08 07:30:00;;;;;;;16.97;6.30;;;0.90;99.90;;;;;;5075807;28;20290;-88
2022/01/08 07:32:26;;;;;;;11.57;7.07;;;0.90;99.90;;;;;;5098305;28;20285;-89
2022/01/08 07:34:52;;;;;;;14.30;6.83;;;0.90;99.90;;;;;;5090666;28;20301;-89
2022/01/08 07:37:18;;;;;;;16.30;7.43;;;0.90;99.90;;;;;;5095029;28;20307;-83
2022/01/08 07:39:44;;;;;;;15.43;6.83;;;0.90;99.90;;;;;;5080363;27;20289;-81
2022/01/08 07:42:10;;;;;;;16.27;7.03;;;1.00;99.90;;;;;;5082580;27;20101;-82
2022/01/08 07:44:36;;;;;;;13.63;7.37;;;1.00;99.90;;;;;;5068291;27;20247;-82
2022/01/08 07:47:02;;;;;;;14.87;6.80;;;1.10;99.90;;;;;;5080686;27;20048;-79
2022/01/08 07:49:27;;;;;;;22.00;7.30;;;1.00;99.90;;;;;;5082792;27;20039;-82
2022/01/08 07:51:53;;;;;;;16.13;7.13;;;1.00;99.90;;;;;;5098415;27;20083;-85
2022/01/08 07:54:19;;;;;;;14.33;7.30;;;1.00;99.90;;;;;;5083861;27;20112;-85
2022/01/08 07:56:45;;;;;;;17.60;7.70;;;1.00;99.90;;;;;;5082310;27;20105;-82
2022/01/08 07:59:10;;;;;;;12.00;6.77;;;1.00;99.90;;;;;;5081572;27;20051;-84
2022/01/08 08:01:36;;;;;;;16.10;7.07;;;1.00;99.90;;;;;;5067510;27;20074;-83
2022/01/08 08:04:02;;;;;;;15.33;6.97;;;1.10;99.90;;;;;;5075432;27;20110;-82
2022/01/08 08:06:28;;;;;;;10.17;6.77;;;1.10;99.90;;;;;;5083032;27;20035;-82
2022/01/08 08:08:53;;;;;;;11.80;6.60;;;1.00;99.90;;;;;;5099172;27;20140;-82
2022/01/08 08:11:19;;;;;;;12.77;6.67;;;1.10;99.90;;;;;;5096495;27;20039;-83
2022/01/08 08:13:45;;;;;;;11.80;6.30;;;1.10;99.90;;;;;;5066968;27;20307;-82
2022/01/08 08:16:11;;;;;;;18.87;6.87;;;1.10;99.90;;;;;;5085164;27;20051;-82
2022/01/08 08:18:36;;;;;;;14.33;6.50;;;1.10;99.90;;;;;;5083806;27;20058;-80
2022/01/08 08:21:02;;;;;;;13.27;6.70;;;1.10;99.90;;;;;;5065814;27;20509;-79
2022/01/08 08:23:28;;;;;;;13.03;6.47;;;1.10;99.90;;;;;;5097342;27;20039;-77
2022/01/08 08:25:53;;;;;;;16.13;6.13;;;1.10;99.90;;;;;;5065104;27;20043;-82
2022/01/08 08:28:19;;;;;;;18.20;6.23;;;1.10;99.90;;;;;;5112539;27;20062;-82
2022/01/08 08:30:45;;;;;;;14.80;6.40;;;1.10;99.90;;;;;;5081983;27;20653;-81
2022/01/08 08:33:11;;;;;;;14.00;6.60;;;1.20;99.90;;;;;;5064340;27;20051;-83
2022/01/08 08:35:37;;;;;;;12.50;5.90;;;1.20;99.90;;;;;;5097986;27;20041;-83
2022/01/08 08:38:03;;;;;;;11.93;6.03;;;1.20;99.90;;;;;;5082295;27;20076;-86
2022/01/08 08:40:29;;;;;;;12.27;6.43;;;1.30;99.90;;;;;;5080408;27;20043;-78
2022/01/08 08:42:54;;;;;;;16.13;6.10;;;1.30;99.90;;;;;;5082181;27;20031;-80
2022/01/08 08:45:20;;;;;;;12.20;6.03;;;1.30;99.90;;;;;;5104235;27;20067;-79
2022/01/08 08:47:46;;;;;;;11.93;5.77;;;1.40;99.90;;;;;;5094972;27;20074;-82
2022/01/08 08:50:14;;;;;;;11.73;6.13;;;1.40;99.90;;;;;;5063876;27;20106;-84
2022/01/08 08:52:39;;;;;;;14.40;6.30;;;1.40;99.90;;;;;;5114823;27;20044;-81
2022/01/08 08:55:06;;;;;;;12.10;6.00;;;1.50;99.90;;;;;;5097111;27;20303;-90
2022/01/08 08:57:32;;;;;;;11.80;6.13;;;1.50;99.90;;;;;;5081060;27;20105;-85
2022/01/08 08:59:58;;;;;;;10.87;5.57;;;1.60;99.90;;;;;;5110747;27;20307;-79
2022/01/08 09:02:24;;;;;;;12.53;5.90;;;1.60;99.90;;;;;;5065355;27;20284;-81
2022/01/08 09:04:51;;;;;;;10.00;6.20;;;1.60;99.90;;;;;;5094741;27;20047;-80
2022/01/08 09:07:17;;;;;;;18.23;6.53;;;1.60;99.90;;;;;;5087226;27;20054;-82
2022/01/08 09:09:44;;;;;;;12.10;6.33;;;1.50;99.90;;;;;;5081977;27;20277;-83
2022/01/08 09:12:14;;;;;;;14.73;6.27;;;1.60;99.90;;;;;;5096176;27;20297;-81
2022/01/08 09:14:42;;;;;;;11.57;6.30;;;1.60;99.90;;;;;;5106940;27;20386;-83
2022/01/08 09:17:08;;;;;;;16.20;6.20;;;1.70;99.90;;;;;;5097820;27;20307;-84
2022/01/08 09:19:33;;;;;;;11.00;6.10;;;1.70;99.90;;;;;;5079436;27;20381;-83
2022/01/08 09:22:01;;;;;;;13.37;5.63;;;1.60;99.90;;;;;;5097659;27;20046;-83
2022/01/08 09:24:28;;;;;;;13.70;6.43;;;1.80;99.90;;;;;;5097850;27;20039;-90
2022/01/08 09:26:54;;;;;;;16.40;6.60;;;1.80;99.90;;;;;;5098736;27;20301;-86
2022/01/08 09:29:20;;;;;;;15.57;7.40;;;1.80;99.90;;;;;;5084615;27;20131;-87
2022/01/08 09:31:46;;;;;;;14.43;6.83;;;1.90;99.90;;;;;;5096905;27;20053;-88
2022/01/08 09:34:12;;;;;;;13.30;6.23;;;1.90;99.90;;;;;;5093885;27;20502;-85
2022/01/08 09:36:38;;;;;;;17.23;7.10;;;1.90;99.90;;;;;;5090463;27;20047;-87
2022/01/08 09:39:08;;;;;;;11.17;6.40;;;2.00;99.90;;;;;;5081030;27;20043;-88
2022/01/08 09:41:34;;;;;;;14.50;7.77;;;2.00;99.90;;;;;;5079198;27;20296;-84
2022/01/08 09:44:00;;;;;;;14.97;6.77;;;2.00;99.90;;;;;;5098314;27;20348;-85
2022/01/08 09:46:25;;;;;;;17.77;7.00;;;2.10;99.90;;;;;;5078693;27;20133;-85
2022/01/08 09:48:51;;;;;;;12.37;7.10;;;2.10;99.90;;;;;;5066414;27;20121;-85
2022/01/08 09:51:18;;;;;;;10.77;6.57;;;2.20;99.90;;;;;;5081313;27;20096;-86
2022/01/08 09:53:45;;;;;;;15.77;7.37;;;2.20;99.90;;;;;;5097214;27;20057;-86
2022/01/08 09:56:11;;;;;;;12.33;6.80;;;2.20;99.90;;;;;;5096567;27;20050;-86
2022/01/08 09:58:37;;;;;;;15.17;7.33;;;2.20;99.90;;;;;;5095826;27;20043;-86
2022/01/08 10:01:30;;;;;;;18.20;7.63;;;2.20;99.90;;;;;;5080147;27;20072;-86
2022/01/08 10:04:00;;;;;;;19.13;7.73;;;2.10;99.90;;;;;;5091823;27;20074;-86
2022/01/08 10:06:28;;;;;;;15.10;7.90;;;2.20;99.90;;;;;;5095848;27;20100;-87
2022/01/08 10:08:55;;;;;;;18.43;8.33;;;2.20;99.90;;;;;;5080377;27;20107;-85
2022/01/08 10:11:22;;;;;;;19.00;8.23;;;2.20;99.90;;;;;;5080668;27;20454;-87
2022/01/08 10:13:59;;;;;;;20.77;8.67;;;2.30;99.90;;;;;;5092126;27;20035;-87
2022/01/08 10:19:24;;;;;;;14.67;8.57;;;2.30;99.90;;;;;;5108680;28;20043;-83
2022/01/08 10:21:51;;;;;;;14.40;8.73;;;2.40;99.90;;;;;;5113371;27;20056;-84
2022/01/08 10:24:26;;;;;;;16.30;8.53;;;2.40;99.90;;;;;;5098895;27;20043;-84
2022/01/08 10:27:00;;;;;;;18.80;9.17;;;2.50;99.90;;;;;;5108216;27;20040;-85
2022/01/08 10:29:26;;;;;;;19.00;9.97;;;2.50;99.90;;;;;;5091412;27;20055;-84
2022/01/08 10:31:54;;;;;;;15.53;9.20;;;2.50;99.90;;;;;;5078850;28;20039;-84
2022/01/08 10:34:23;;;;;;;18.93;9.20;;;2.50;99.90;;;;;;5079861;28;20104;-87
2022/01/08 10:36:49;;;;;;;15.23;8.97;;;2.60;99.90;;;;;;5113070;27;20039;-87
2022/01/08 10:39:33;;;;;;;17.57;9.40;;;2.60;99.90;;;;;;5092186;28;20043;-87
2022/01/08 10:42:16;;;;;;;15.20;9.37;;;2.70;99.90;;;;;;5097427;28;20065;-87
2022/01/08 10:44:44;;;;;;;14.90;9.87;;;2.70;99.90;;;;;;5080344;28;20040;-86
2022/01/08 10:47:13;;;;;;;19.17;9.23;;;2.70;99.90;;;;;;5090391;28;20039;-90
2022/01/08 10:49:48;;;;;;;17.80;9.37;;;2.80;99.90;;;;;;5106514;28;20050;-86
2022/01/08 10:52:19;;;;;;;21.53;10.40;;;2.80;99.90;;;;;;5108357;28;20043;-84
2022/01/08 10:54:54;;;;;;;16.48;9.63;;;2.90;99.90;;;;;;5112476;28;20067;-86
2022/01/08 10:57:29;;;;;;;19.20;9.97;;;2.90;99.90;;;;;;5095241;28;20053;-86
2022/01/08 10:59:56;;;;;;;20.03;10.77;;;3.00;99.90;;;;;;5113842;28;20512;-86
2022/01/08 11:02:26;;;;;;;19.23;10.87;;;3.00;99.90;;;;;;5073094;28;20378;-84
2022/01/08 11:04:53;;;;;;;20.43;10.47;;;3.00;99.90;;;;;;5079347;28;20050;-85
2022/01/08 11:07:27;;;;;;;19.50;10.60;;;3.00;99.90;;;;;;5108641;28;20083;-86
2022/01/08 11:09:55;;;;;;;20.20;10.83;;;3.00;99.90;;;;;;5111820;28;20036;-85
2022/01/08 11:12:30;;;;;;;18.00;9.90;;;3.00;99.90;;;;;;5111201;28;20498;-87
2022/01/08 11:17:43;;;;;;;18.87;10.20;;;3.00;99.90;;;;;;5117381;27;20043;-86
2022/01/08 11:20:15;;;;;;;19.23;10.93;;;3.00;99.90;;;;;;5100564;27;20043;-85
2022/01/08 11:22:47;;;;;;;17.93;10.90;;;3.00;99.90;;;;;;5100452;27;20043;-86
2022/01/08 11:25:24;;;;;;;18.88;11.02;;;3.00;99.90;;;;;;5117291;27;20054;-85
2022/01/08 11:28:12;;;;;;;16.77;9.97;;;3.00;99.90;;;;;;5115286;27;20053;-85
2022/01/08 11:30:39;;;;;;;22.73;11.73;;;3.00;99.90;;;;;;5100304;27;20044;-84
2022/01/08 11:33:12;;;;;;;16.37;10.10;;;3.00;99.90;;;;;;5099998;27;20066;-86
2022/01/08 11:35:39;;;;;;;21.50;11.07;;;3.10;99.90;;;;;;5109667;27;20072;-85
2022/01/08 11:38:08;;;;;;;18.60;11.13;;;3.10;99.90;;;;;;5101260;27;20054;-82
2022/01/08 11:40:35;;;;;;;20.27;10.60;;;3.20;99.90;;;;;;5100345;27;20039;-86
2022/01/08 11:43:03;;;;;;;19.47;10.57;;;3.20;99.90;;;;;;5102658;27;20046;-87
2022/01/08 11:45:38;;;;;;;14.10;10.23;;;3.30;99.90;;;;;;5070744;27;20043;-86
2022/01/08 11:48:08;;;;;;;18.13;11.03;;;3.30;99.90;;;;;;5099663;27;20039;-86
2022/01/08 11:50:34;;;;;;;20.07;11.20;;;3.30;99.90;;;;;;5099642;27;20051;-86
2022/01/08 11:53:15;;;;;;;21.20;10.67;;;3.40;99.90;;;;;;5101450;27;20047;-85
2022/01/08 11:55:43;;;;;;;20.53;10.87;;;3.30;99.90;;;;;;5098159;27;20054;-86
2022/01/08 11:58:30;;;;;;;20.43;11.03;;;3.40;99.90;;;;;;5084743;27;20066;-85
2022/01/08 12:01:14;;;;;;;20.83;11.00;;;3.40;99.90;;;;;;5100275;27;20453;-85
2022/01/08 12:03:47;;;;;;;19.43;11.10;;;3.40;99.90;;;;;;5098647;27;20039;-85
2022/01/08 12:06:23;;;;;;;18.30;11.60;;;3.40;99.90;;;;;;5114573;27;20105;-87
2022/01/08 12:11:44;;;;;;;27.93;13.17;;;3.50;99.90;;;;;;5114666;27;20097;-88
2022/01/08 12:14:14;;;;;;;22.17;13.73;;;3.50;99.90;;;;;;5097522;27;20031;-88
2022/01/08 12:16:41;;;;;;;24.83;14.13;;;3.60;99.90;;;;;;5097348;27;20066;-88
2022/01/08 12:19:09;;;;;;;21.87;12.67;;;3.60;99.90;;;;;;5078062;27;20047;-86
2022/01/08 12:21:38;;;;;;;21.37;14.10;;;3.60;99.90;;;;;;5099268;27;21407;-87
2022/01/08 12:24:31;;;;;;;27.43;14.83;;;3.60;99.90;;;;;;5082074;27;20051;-87
2022/01/08 12:26:59;;;;;;;27.60;15.37;;;3.60;99.90;;;;;;5082541;27;20082;-87
2022/01/08 12:29:39;;;;;;;26.67;15.60;;;3.60;99.90;;;;;;5096944;27;20051;-88
2022/01/08 12:32:29;;;;;;;29.63;18.00;;;3.50;99.90;;;;;;5113358;27;20058;-80
2022/01/08 12:35:19;;;;;;;26.03;16.53;;;3.50;99.90;;;;;;5097754;27;20047;-87
2022/01/08 12:37:59;;;;;;;29.10;17.87;;;3.50;99.90;;;;;;5097342;27;20100;-87
2022/01/08 12:40:36;;;;;;;32.30;19.00;;;3.50;99.90;;;;;;5090570;27;20043;-86
2022/01/08 12:43:37;;;;;;;27.60;18.07;;;3.60;99.90;;;;;;5097559;27;20051;-86
2022/01/08 12:46:24;;;;;;;30.83;17.67;;;3.50;99.90;;;;;;5088721;27;20049;-87
2022/01/08 12:49:12;;;;;;;23.87;17.20;;;3.50;99.90;;;;;;5082385;27;20120;-87
2022/01/08 12:51:51;;;;;;;28.20;17.77;;;3.50;99.90;;;;;;5094947;27;20042;-87
2022/01/08 12:54:22;;;;;;;30.40;17.57;;;3.60;99.90;;;;;;5095813;27;20046;-87
2022/01/08 12:56:56;;;;;;;28.60;17.57;;;3.60;99.90;;;;;;5074918;27;20143;-88
2022/01/08 12:59:30;;;;;;;31.87;19.67;;;3.60;99.90;;;;;;5096605;27;20035;-86
2022/01/08 13:01:57;;;;;;;31.27;18.60;;;3.60;99.90;;;;;;5111428;27;20510;-86
2022/01/08 13:04:23;;;;;;;37.50;20.67;;;3.50;99.90;;;;;;5080218;27;20058;-87
2022/01/08 13:06:49;;;;;;;30.93;18.97;;;3.60;99.90;;;;;;5113485;27;20039;-86
2022/01/08 13:09:16;;;;;;;35.90;20.17;;;3.60;99.90;;;;;;5116699;27;20078;-86
2022/01/08 13:11:44;;;;;;;32.87;20.90;;;3.50;99.90;;;;;;5098752;27;20067;-87
2022/01/08 13:14:16;;;;;;;35.23;20.30;;;3.50;99.90;;;;;;5097896;27;20449;-87
2022/01/08 13:16:50;;;;;;;36.78;20.52;;;3.50;99.90;;;;;;5094765;27;20046;-88